Martel, Ohio
Current Conditions -  °F | °C
As of 11:53 AM on Sunday 23 Nov 2014 (Local Time) from KMNN Reporting Station
Overcast Overcast  
Wind Chill: 54°   Ceiling: 3400
Heat Index: 54°   Visibility: 10mi
Dew Point: 40°   Wind: 13mph
Humidity: 59%   Direction: 170°S
Pressure: 29.91"   Gusts: NA
Location:  40.67°N, 82.91°W
Report Text: KMNN 231653Z AUTO 17011KT 10SM OVC034 12/04 A2991 RMK AO2 SLP133 T01220044 TSNO
Loading
Personal Weather Stations






























Interactive Weather Map New forecast layout! Learn more

10-Day Weather Forecast

Advertisements
Track Severe Weather on mobile